Time;durP1;ratioP1;P1;durP2;ratioP2;P2;SDS_P1;SDS_P2;PMS_P1;PMS_P2;Temp;Humidity;BMP_temperature;BMP_pressure;BME280_temperature;BME280_humidity;BME280_pressure;Samples;Min_cycle;Max_cycle;Signal;HPM_P1;HPM_P2
2021/10/01 00:02:25;;;;;;;25.02;15.63;;;8.00;99.90;;;;;;5019754;28;20197;-54
2021/10/01 00:04:53;;;;;;;19.83;15.05;;;8.10;99.90;;;;;;5030407;28;20200;-54
2021/10/01 00:07:20;;;;;;;15.98;12.82;;;8.20;99.90;;;;;;5033546;28;20196;-55
2021/10/01 00:09:48;;;;;;;15.95;13.40;;;8.30;99.90;;;;;;5040602;28;20201;-54
2021/10/01 00:12:17;;;;;;;20.38;16.42;;;8.20;99.90;;;;;;5090618;22;20521;-47
2021/10/01 00:14:44;;;;;;;17.92;15.05;;;8.20;99.90;;;;;;5072671;28;20455;-52
2021/10/01 00:17:12;;;;;;;20.50;15.77;;;8.10;99.90;;;;;;5080279;28;20199;-48
2021/10/01 00:19:39;;;;;;;21.45;13.40;;;7.90;99.90;;;;;;5075293;28;20493;-51
2021/10/01 00:22:06;;;;;;;16.90;13.45;;;7.80;99.90;;;;;;5071475;28;20258;-48
2021/10/01 00:24:36;;;;;;;16.85;14.68;;;7.70;99.90;;;;;;5075962;28;20559;-49
2021/10/01 00:27:08;;;;;;;18.40;13.82;;;7.60;99.90;;;;;;5071994;28;20199;-50
2021/10/01 00:29:36;;;;;;;16.90;13.25;;;7.70;99.90;;;;;;5079350;28;20248;-48
2021/10/01 00:32:04;;;;;;;24.35;13.60;;;7.90;99.90;;;;;;5072460;28;20235;-49
2021/10/01 00:34:31;;;;;;;16.95;13.73;;;7.90;99.90;;;;;;5081197;28;20207;-51
2021/10/01 00:36:58;;;;;;;19.45;14.48;;;7.70;99.90;;;;;;5072708;28;20245;-51
2021/10/01 00:39:26;;;;;;;19.23;15.27;;;7.50;99.90;;;;;;5073741;28;20214;-50
2021/10/01 00:41:53;;;;;;;19.63;15.30;;;7.50;99.90;;;;;;5073791;28;20215;-53
2021/10/01 00:44:20;;;;;;;20.80;14.90;;;7.40;99.90;;;;;;5062055;28;20195;-47
2021/10/01 00:46:47;;;;;;;21.13;16.13;;;7.50;99.90;;;;;;5070199;28;20563;-50
2021/10/01 00:49:15;;;;;;;20.00;15.43;;;7.60;99.90;;;;;;5071315;28;20466;-49
2021/10/01 00:51:42;;;;;;;22.27;17.67;;;7.50;99.90;;;;;;5076204;28;20219;-50
2021/10/01 00:54:10;;;;;;;22.73;15.55;;;7.40;99.90;;;;;;5072149;28;20203;-49
2021/10/01 00:56:38;;;;;;;23.85;18.20;;;7.50;99.90;;;;;;5076834;28;20198;-50
2021/10/01 00:59:06;;;;;;;20.83;15.98;;;7.60;99.90;;;;;;5073848;28;20265;-54
2021/10/01 01:01:33;;;;;;;24.92;16.17;;;7.60;99.90;;;;;;5077193;28;20261;-47
2021/10/01 01:04:04;;;;;;;23.33;16.88;;;7.40;99.90;;;;;;5070012;28;20206;-53
2021/10/01 01:06:48;;;;;;;19.63;15.70;;;7.40;99.90;;;;;;5072071;28;20256;-49
2021/10/01 01:09:30;;;;;;;19.27;14.57;;;7.40;99.90;;;;;;5074338;28;20265;-51
2021/10/01 01:12:17;;;;;;;23.58;16.75;;;7.40;99.90;;;;;;5082664;28;20226;-49
2021/10/01 01:15:04;;;;;;;21.92;16.20;;;7.30;99.90;;;;;;5079402;28;20200;-47
2021/10/01 01:18:08;;;;;;;21.58;14.90;;;7.30;99.90;;;;;;5079807;28;20199;-46
2021/10/01 01:20:44;;;;;;;18.13;15.02;;;7.40;99.90;;;;;;5058687;28;20268;-48
2021/10/01 01:23:42;;;;;;;18.10;16.10;;;7.40;99.90;;;;;;5067476;28;20211;-52
2021/10/01 01:26:46;;;;;;;21.10;16.00;;;7.20;99.90;;;;;;5071312;28;20522;-50
2021/10/01 01:29:37;;;;;;;20.92;15.68;;;7.30;99.90;;;;;;5070111;28;20200;-48
2021/10/01 01:32:19;;;;;;;20.27;14.63;;;7.40;99.90;;;;;;5071750;28;20542;-47
2021/10/01 01:35:08;;;;;;;21.25;14.13;;;7.40;99.90;;;;;;5056503;28;20548;-49
2021/10/01 01:37:46;;;;;;;19.08;15.77;;;7.20;99.90;;;;;;5067642;28;20244;-48
2021/10/01 01:40:16;;;;;;;16.92;15.00;;;7.10;99.90;;;;;;5065129;28;20262;-50
2021/10/01 01:42:45;;;;;;;24.58;16.70;;;7.20;99.90;;;;;;5074902;28;20389;-52
2021/10/01 01:45:13;;;;;;;17.95;14.93;;;7.20;99.90;;;;;;5072733;28;20198;-52
2021/10/01 01:47:43;;;;;;;27.83;15.95;;;7.10;99.90;;;;;;5072866;28;20241;-49
2021/10/01 01:50:10;;;;;;;18.10;16.27;;;7.10;99.90;;;;;;5074894;28;20505;-50
2021/10/01 01:52:40;;;;;;;18.23;15.70;;;7.10;99.90;;;;;;5073040;28;20225;-52
2021/10/01 01:55:08;;;;;;;21.05;16.77;;;7.10;99.90;;;;;;5076764;28;20268;-49
2021/10/01 01:57:37;;;;;;;19.33;14.60;;;7.20;99.90;;;;;;5068135;28;20199;-52
2021/10/01 02:00:06;;;;;;;20.83;15.73;;;7.10;99.90;;;;;;5075789;28;20227;-49
2021/10/01 02:02:35;;;;;;;23.98;14.55;;;6.70;99.90;;;;;;5070131;28;20238;-49
2021/10/01 02:05:03;;;;;;;22.08;17.42;;;6.70;99.90;;;;;;5076202;28;20474;-51
2021/10/01 02:07:31;;;;;;;18.48;14.60;;;6.80;99.90;;;;;;5072934;28;20514;-50
2021/10/01 02:09:59;;;;;;;22.73;15.55;;;7.00;99.90;;;;;;5075856;28;20203;-47
2021/10/01 02:12:27;;;;;;;21.65;16.25;;;7.00;99.90;;;;;;5074768;28;20223;-49
2021/10/01 02:14:57;;;;;;;22.13;15.70;;;7.20;99.90;;;;;;5068410;28;20196;-48
2021/10/01 02:17:27;;;;;;;21.25;15.80;;;7.10;99.90;;;;;;5075751;28;20241;-45
2021/10/01 02:19:56;;;;;;;18.30;13.52;;;6.80;99.90;;;;;;5072452;28;20558;-46
2021/10/01 02:22:26;;;;;;;22.33;16.20;;;6.90;99.90;;;;;;5075945;28;20219;-49
2021/10/01 02:24:54;;;;;;;21.60;15.57;;;6.90;99.90;;;;;;5076768;28;20249;-52
2021/10/01 02:27:40;;;;;;;15.48;13.57;;;6.60;99.90;;;;;;5076856;28;20195;-50
2021/10/01 02:30:15;;;;;;;21.70;15.80;;;6.70;99.90;;;;;;5078614;28;20225;-48
2021/10/01 02:33:01;;;;;;;18.50;13.77;;;6.50;99.90;;;;;;5076988;28;20206;-48
2021/10/01 02:35:28;;;;;;;19.38;15.90;;;6.60;99.90;;;;;;5065997;28;20252;-51
2021/10/01 02:37:55;;;;;;;21.85;16.60;;;6.70;99.90;;;;;;5076496;28;20436;-51
2021/10/01 02:40:23;;;;;;;27.00;16.95;;;6.80;99.90;;;;;;5072221;28;20244;-47
2021/10/01 02:42:50;;;;;;;20.73;16.02;;;6.80;99.90;;;;;;5077865;28;20195;-49
2021/10/01 02:45:17;;;;;;;21.08;16.80;;;6.70;99.90;;;;;;5072841;28;20347;-51
2021/10/01 02:47:45;;;;;;;23.17;15.35;;;6.60;99.90;;;;;;5078808;28;20248;-50
2021/10/01 02:50:18;;;;;;;20.08;15.60;;;6.40;99.90;;;;;;5075176;28;20254;-52
2021/10/01 02:53:00;;;;;;;21.40;15.88;;;6.30;99.90;;;;;;5078891;28;20508;-50
2021/10/01 02:55:47;;;;;;;20.65;16.50;;;6.40;99.90;;;;;;5069608;28;20238;-50
2021/10/01 02:58:23;;;;;;;23.10;16.52;;;6.20;99.90;;;;;;5071336;28;20232;-49
2021/10/01 03:00:52;;;;;;;21.42;16.98;;;6.20;99.90;;;;;;5065571;28;20227;-52
2021/10/01 03:03:27;;;;;;;22.10;16.90;;;6.20;99.90;;;;;;5068287;28;20231;-52
2021/10/01 03:05:58;;;;;;;25.65;17.05;;;6.20;99.90;;;;;;5074997;28;20198;-48
2021/10/01 03:08:28;;;;;;;26.88;16.52;;;6.20;99.90;;;;;;5068660;28;20292;-55
2021/10/01 03:10:57;;;;;;;20.08;16.25;;;6.10;99.90;;;;;;5055619;28;20386;-51
2021/10/01 03:13:27;;;;;;;25.17;16.38;;;6.20;99.90;;;;;;5073991;28;20433;-49
2021/10/01 03:15:57;;;;;;;22.52;17.13;;;6.30;99.90;;;;;;5073600;28;20502;-55
2021/10/01 03:18:27;;;;;;;18.80;15.43;;;6.40;99.90;;;;;;5067653;28;20194;-48
2021/10/01 03:20:55;;;;;;;17.38;15.52;;;6.50;99.90;;;;;;5075811;28;20215;-48
2021/10/01 03:23:23;;;;;;;16.58;13.77;;;6.50;99.90;;;;;;5079166;28;20195;-47
2021/10/01 03:25:53;;;;;;;20.35;15.70;;;6.40;99.90;;;;;;5076702;28;20199;-50
2021/10/01 03:28:21;;;;;;;19.55;17.40;;;6.40;99.90;;;;;;5071958;28;20631;-49
2021/10/01 03:30:49;;;;;;;19.00;14.13;;;6.40;99.90;;;;;;5078115;28;20263;-46
2021/10/01 03:33:16;;;;;;;18.50;15.60;;;6.30;99.90;;;;;;5073387;28;20206;-48
2021/10/01 03:35:45;;;;;;;22.73;16.17;;;6.30;99.90;;;;;;5075945;28;20355;-53
2021/10/01 03:38:14;;;;;;;18.73;15.35;;;6.20;99.90;;;;;;5073454;28;20705;-49
2021/10/01 03:40:43;;;;;;;18.58;13.93;;;6.20;99.90;;;;;;5074519;28;20444;-49
2021/10/01 03:43:12;;;;;;;23.98;18.08;;;6.20;99.90;;;;;;5075408;28;20202;-48
2021/10/01 03:45:39;;;;;;;16.63;15.00;;;5.90;99.90;;;;;;5073922;28;20431;-51
2021/10/01 03:48:08;;;;;;;25.35;15.73;;;5.90;99.90;;;;;;5077936;28;20405;-46
2021/10/01 03:50:36;;;;;;;19.70;15.70;;;6.00;99.90;;;;;;5069193;28;20219;-51
2021/10/01 03:53:04;;;;;;;16.00;14.35;;;6.10;99.90;;;;;;5078225;28;20206;-54
2021/10/01 03:55:32;;;;;;;19.85;15.82;;;6.00;99.90;;;;;;5066004;28;20203;-49
2021/10/01 03:57:59;;;;;;;17.23;15.23;;;5.90;99.90;;;;;;5076962;28;20215;-52
2021/10/01 04:00:26;;;;;;;20.42;14.68;;;6.10;99.90;;;;;;5065789;28;20232;-51
2021/10/01 04:02:54;;;;;;;19.88;15.88;;;6.10;99.90;;;;;;5066283;28;20214;-52
2021/10/01 04:05:21;;;;;;;19.45;15.23;;;6.00;99.90;;;;;;5076274;28;20405;-47
2021/10/01 04:07:48;;;;;;;20.45;14.55;;;5.90;99.90;;;;;;5064543;28;20237;-43
2021/10/01 04:10:15;;;;;;;17.00;14.23;;;5.80;99.90;;;;;;5075944;28;20355;-47
2021/10/01 04:12:44;;;;;;;18.80;14.55;;;5.80;99.90;;;;;;5071167;28;20245;-47
2021/10/01 04:15:11;;;;;;;23.55;16.27;;;5.80;99.90;;;;;;5075847;28;20400;-49
2021/10/01 04:17:38;;;;;;;18.15;16.10;;;5.70;99.90;;;;;;5067768;28;20250;-51
2021/10/01 04:20:06;;;;;;;17.90;14.93;;;5.80;99.90;;;;;;5072212;28;20229;-52
2021/10/01 04:22:33;;;;;;;20.55;14.77;;;5.90;99.90;;;;;;5075629;28;20437;-47
2021/10/01 04:25:00;;;;;;;19.17;15.68;;;5.90;99.90;;;;;;5064554;28;20542;-47
2021/10/01 04:27:27;;;;;;;19.05;15.13;;;5.80;99.90;;;;;;5076818;28;20195;-50
2021/10/01 04:29:55;;;;;;;19.63;14.82;;;5.80;99.90;;;;;;5066916;28;20506;-49
2021/10/01 04:32:23;;;;;;;18.98;15.50;;;5.80;99.90;;;;;;5070445;28;20220;-50
2021/10/01 04:35:11;;;;;;;16.95;15.15;;;5.80;99.90;;;;;;5072079;28;20409;-49
2021/10/01 04:37:37;;;;;;;17.02;15.13;;;5.90;99.90;;;;;;5056885;28;20204;-46
2021/10/01 04:40:05;;;;;;;17.60;14.10;;;5.80;99.90;;;;;;5059995;28;20265;-48
2021/10/01 04:42:33;;;;;;;21.15;16.17;;;5.80;99.90;;;;;;5057733;28;20223;-51
2021/10/01 04:45:00;;;;;;;21.50;13.55;;;5.80;99.90;;;;;;5060491;28;20207;-49
2021/10/01 04:47:27;;;;;;;14.98;13.32;;;5.80;99.90;;;;;;5060541;28;20195;-49
2021/10/01 04:49:55;;;;;;;20.42;13.43;;;5.70;99.90;;;;;;5069302;28;20206;-47
2021/10/01 04:52:22;;;;;;;19.90;14.80;;;5.60;99.90;;;;;;5077231;28;20219;-44
2021/10/01 04:54:49;;;;;;;14.88;12.25;;;5.60;99.90;;;;;;5074086;28;20202;-49
2021/10/01 04:57:16;;;;;;;15.35;13.70;;;5.60;99.90;;;;;;5067817;28;20210;-52
2021/10/01 04:59:44;;;;;;;13.23;11.77;;;5.70;99.90;;;;;;5068379;28;20226;-51
2021/10/01 05:02:11;;;;;;;15.10;13.45;;;5.80;99.90;;;;;;5064741;28;20580;-50
2021/10/01 05:04:39;;;;;;;17.38;13.48;;;5.70;99.90;;;;;;5076699;28;20194;-48
2021/10/01 05:07:06;;;;;;;13.93;12.45;;;5.70;99.90;;;;;;5067228;28;20256;-47
2021/10/01 05:09:33;;;;;;;19.73;14.95;;;5.70;99.90;;;;;;5077152;28;20211;-47
2021/10/01 05:12:00;;;;;;;18.05;13.05;;;5.60;99.90;;;;;;5069518;28;20590;-52
2021/10/01 05:14:27;;;;;;;19.98;14.18;;;5.70;99.90;;;;;;5064672;28;20382;-49
2021/10/01 05:16:55;;;;;;;11.70;10.52;;;5.80;99.90;;;;;;5056623;28;20569;-49
2021/10/01 05:19:22;;;;;;;15.93;13.73;;;5.80;99.90;;;;;;5077309;28;20230;-47
2021/10/01 05:21:49;;;;;;;19.42;15.27;;;5.80;99.90;;;;;;5070092;28;20266;-47
2021/10/01 05:24:16;;;;;;;18.15;15.73;;;5.80;99.90;;;;;;5075015;28;20252;-47
2021/10/01 05:26:44;;;;;;;15.95;13.57;;;5.80;99.90;;;;;;5074874;28;20198;-52
2021/10/01 05:29:11;;;;;;;15.35;13.80;;;5.90;99.90;;;;;;5068571;28;20203;-51
2021/10/01 05:31:38;;;;;;;14.20;12.80;;;5.90;99.90;;;;;;5071684;28;20524;-52
2021/10/01 05:34:05;;;;;;;12.68;10.63;;;5.90;99.90;;;;;;5075845;28;20203;-47
2021/10/01 05:36:33;;;;;;;15.25;12.68;;;6.00;99.90;;;;;;5073505;28;20559;-49
2021/10/01 05:39:02;;;;;;;13.68;11.48;;;6.00;99.90;;;;;;5068870;28;20349;-49
2021/10/01 05:41:30;;;;;;;15.57;12.55;;;6.00;99.90;;;;;;5075351;28;20218;-51
2021/10/01 05:43:58;;;;;;;15.52;13.93;;;6.10;99.90;;;;;;5068798;28;20199;-51
2021/10/01 05:46:25;;;;;;;13.10;11.80;;;6.20;99.90;;;;;;5077068;28;20540;-49
2021/10/01 05:48:57;;;;;;;15.48;12.18;;;6.20;99.90;;;;;;5075839;28;20195;-50
2021/10/01 05:51:24;;;;;;;17.95;12.38;;;6.20;99.90;;;;;;5074462;28;20613;-49
2021/10/01 05:54:12;;;;;;;12.88;11.50;;;6.30;99.90;;;;;;5080883;28;20209;-52
2021/10/01 05:56:39;;;;;;;12.40;11.05;;;6.40;99.90;;;;;;5070518;28;20195;-48
2021/10/01 05:59:07;;;;;;;13.55;11.80;;;6.40;99.90;;;;;;5077439;28;20218;-49
2021/10/01 06:01:36;;;;;;;14.57;10.88;;;6.50;99.90;;;;;;5074452;28;20231;-48
2021/10/01 06:04:06;;;;;;;12.73;9.75;;;6.50;99.90;;;;;;5078588;28;20202;-53
2021/10/01 06:06:34;;;;;;;20.35;11.55;;;6.70;99.90;;;;;;5073097;28;20195;-51
2021/10/01 06:09:03;;;;;;;14.43;11.18;;;7.20;99.90;;;;;;5080941;28;20236;-51
2021/10/01 06:11:30;;;;;;;12.80;9.40;;;7.60;99.90;;;;;;5088404;22;20277;-53
2021/10/01 06:13:57;;;;;;;15.05;9.65;;;7.90;99.90;;;;;;5051804;28;20208;-54
2021/10/01 06:16:24;;;;;;;9.10;8.23;;;8.20;99.90;;;;;;5059020;28;20234;-50
2021/10/01 06:18:53;;;;;;;8.55;7.68;;;8.60;99.90;;;;;;5059505;28;20196;-52
2021/10/01 06:21:20;;;;;;;13.18;7.68;;;8.70;99.90;;;;;;5054813;28;20235;-52
2021/10/01 06:23:47;;;;;;;8.65;7.15;;;8.60;99.90;;;;;;5062685;28;20204;-54
2021/10/01 06:26:15;;;;;;;8.73;7.45;;;8.60;99.90;;;;;;5056055;28;20249;-54
2021/10/01 06:28:42;;;;;;;10.00;8.63;;;8.60;99.90;;;;;;5064692;28;20204;-55
2021/10/01 06:31:09;;;;;;;9.48;7.60;;;8.60;99.90;;;;;;5062869;28;20279;-55
2021/10/01 06:33:36;;;;;;;9.55;8.27;;;8.80;99.90;;;;;;5062671;28;20246;-53
2021/10/01 06:36:05;;;;;;;9.40;7.30;;;8.90;99.90;;;;;;5062782;28;20216;-50
2021/10/01 06:38:32;;;;;;;7.55;6.20;;;9.10;99.90;;;;;;5062808;28;20223;-52
2021/10/01 06:41:01;;;;;;;10.05;6.30;;;9.20;99.90;;;;;;5062697;28;20282;-53
2021/10/01 06:43:30;;;;;;;9.25;7.00;;;9.40;99.90;;;;;;5062283;28;20234;-57
2021/10/01 06:45:58;;;;;;;10.95;7.75;;;9.60;99.90;;;;;;5062515;28;20428;-55
2021/10/01 07:20:56;;;;;;;8.40;6.20;;;11.10;99.90;;;;;;5062372;28;20202;-54
2021/10/01 08:19:12;;;;;;;8.87;6.30;;;22.90;92.60;;;;;;5050136;28;20411;-56
2021/10/01 08:21:32;;;;;;;5.97;5.57;;;23.40;91.90;;;;;;5055405;28;20873;-55
2021/10/01 08:24:12;;;;;;;5.50;5.00;;;23.30;91.70;;;;;;5053925;28;20432;-54
2021/10/01 08:26:42;;;;;;;6.90;6.40;;;23.20;91.80;;;;;;5059969;28;20806;-56
2021/10/01 08:29:09;;;;;;;8.93;5.97;;;23.80;91.80;;;;;;5071617;28;20477;-55
2021/10/01 08:31:37;;;;;;;5.17;4.77;;;23.50;92.20;;;;;;5060704;28;20666;-55
2021/10/01 08:34:05;;;;;;;6.00;5.57;;;23.50;91.30;;;;;;5060344;28;20756;-55
2021/10/01 08:36:32;;;;;;;4.70;4.40;;;23.20;92.40;;;;;;5060056;28;20432;-56
2021/10/01 08:39:00;;;;;;;5.30;4.90;;;23.90;90.70;;;;;;5060747;28;20441;-52
2021/10/01 08:41:27;;;;;;;4.83;4.60;;;24.40;90.20;;;;;;5054276;28;20501;-57
2021/10/01 08:43:55;;;;;;;6.90;5.87;;;23.40;91.80;;;;;;5060100;28;20458;-56
2021/10/01 08:46:23;;;;;;;8.07;5.70;;;22.90;92.20;;;;;;5060640;28;20445;-56
2021/10/01 08:48:52;;;;;;;6.40;5.93;;;22.60;92.70;;;;;;5052398;28;20591;-55
2021/10/01 08:51:19;;;;;;;6.30;5.80;;;23.10;92.20;;;;;;5055842;28;20449;-51
2021/10/01 08:53:52;;;;;;;6.47;6.00;;;22.20;93.20;;;;;;5053220;28;20460;-53
2021/10/01 08:56:22;;;;;;;16.70;6.10;;;22.50;93.30;;;;;;5060153;28;20499;-53
2021/10/01 08:58:50;;;;;;;5.70;5.30;;;22.10;93.00;;;;;;5060283;28;20459;-55
2021/10/01 09:01:17;;;;;;;6.33;6.03;;;21.20;94.30;;;;;;5059549;28;20457;-55
2021/10/01 09:03:46;;;;;;;6.50;6.10;;;21.90;94.10;;;;;;5060256;28;20481;-54
2021/10/01 09:06:18;;;;;;;6.37;5.93;;;22.60;93.30;;;;;;5059449;28;20624;-54
2021/10/01 09:08:55;;;;;;;7.07;6.60;;;22.20;93.50;;;;;;5055696;28;20463;-56
2021/10/01 09:11:28;;;;;;;5.33;4.90;;;21.10;94.70;;;;;;5060040;28;20447;-57
2021/10/01 09:14:10;;;;;;;4.73;4.53;;;20.70;96.10;;;;;;5060186;28;20548;-55
2021/10/01 09:16:38;;;;;;;5.50;5.10;;;20.10;96.80;;;;;;5059346;28;20474;-55
2021/10/01 09:19:08;;;;;;;5.90;5.40;;;19.10;98.30;;;;;;5059906;28;20415;-56
2021/10/01 09:21:42;;;;;;;7.00;5.80;;;18.30;99.50;;;;;;5050665;28;20807;-56
2021/10/01 09:24:12;;;;;;;6.10;5.73;;;17.70;99.90;;;;;;5057224;28;20401;-57
2021/10/01 09:26:53;;;;;;;5.37;5.07;;;17.50;99.90;;;;;;5059275;28;20445;-55
2021/10/01 09:29:34;;;;;;;5.93;5.53;;;17.60;99.90;;;;;;5060013;28;20498;-56
2021/10/01 09:32:22;;;;;;;6.30;5.80;;;17.40;99.90;;;;;;5057313;28;20501;-56
2021/10/01 09:34:49;;;;;;;4.10;3.90;;;17.20;99.90;;;;;;5059283;28;20410;-57
2021/10/01 09:37:26;;;;;;;6.00;5.10;;;17.10;99.90;;;;;;5059948;28;20640;-53
2021/10/01 09:39:58;;;;;;;5.67;5.17;;;17.00;99.90;;;;;;5059566;28;20802;-53
2021/10/01 09:42:27;;;;;;;5.47;5.07;;;16.80;99.90;;;;;;5051956;28;20458;-52
2021/10/01 09:44:59;;;;;;;5.57;5.23;;;16.70;99.90;;;;;;5059482;28;20482;-55
2021/10/01 09:47:29;;;;;;;5.20;4.53;;;16.70;99.90;;;;;;5059829;28;20434;-54
2021/10/01 09:50:05;;;;;;;5.80;5.40;;;16.60;99.90;;;;;;5059324;28;20430;-52
2021/10/01 09:52:52;;;;;;;4.87;4.47;;;16.50;99.90;;;;;;5059881;28;20478;-55
2021/10/01 09:55:29;;;;;;;5.93;5.43;;;16.60;99.90;;;;;;5060106;28;20453;-54
2021/10/01 09:58:09;;;;;;;5.20;4.73;;;16.80;99.90;;;;;;5060160;28;20471;-54
2021/10/01 10:00:39;;;;;;;4.73;4.40;;;16.80;99.90;;;;;;5059499;28;20508;-55
2021/10/01 10:03:12;;;;;;;4.90;4.50;;;16.90;99.90;;;;;;5058772;28;20439;-55
2021/10/01 10:06:03;;;;;;;9.83;4.77;;;16.80;99.90;;;;;;5059568;28;20477;-50
2021/10/01 10:08:37;;;;;;;4.70;4.40;;;16.90;99.90;;;;;;5059242;28;20439;-51
2021/10/01 10:11:11;;;;;;;4.63;4.33;;;16.80;99.90;;;;;;5057457;28;20466;-55
2021/10/01 10:13:48;;;;;;;4.93;4.70;;;16.90;99.90;;;;;;5058960;28;20439;-56
2021/10/01 10:16:21;;;;;;;4.60;4.30;;;16.90;99.90;;;;;;5058928;28;20405;-55
2021/10/01 10:18:57;;;;;;;4.40;4.17;;;16.80;99.90;;;;;;5059323;28;20417;-56
2021/10/01 10:21:25;;;;;;;4.30;4.00;;;16.80;99.90;;;;;;5058856;28;20799;-55
2021/10/01 10:23:53;;;;;;;4.20;3.90;;;16.90;99.90;;;;;;5059286;28;20447;-56
2021/10/01 10:26:21;;;;;;;3.47;3.27;;;16.90;98.80;;;;;;5059174;28;20431;-55
2021/10/01 10:28:48;;;;;;;4.30;4.00;;;16.90;98.60;;;;;;5062135;28;20440;-54
2021/10/01 10:31:17;;;;;;;6.13;4.67;;;16.90;99.30;;;;;;5066855;28;20454;-56
2021/10/01 10:33:51;;;;;;;3.90;3.70;;;17.00;99.10;;;;;;5066407;28;20431;-56
2021/10/01 10:36:47;;;;;;;4.10;3.90;;;17.10;98.40;;;;;;5067142;28;20529;-53
2021/10/01 10:39:19;;;;;;;3.70;3.40;;;17.10;97.90;;;;;;5069160;28;20439;-57
2021/10/01 10:42:03;;;;;;;3.70;3.50;;;17.10;98.00;;;;;;5069271;28;20506;-56
2021/10/01 10:44:55;;;;;;;4.00;3.77;;;17.00;98.80;;;;;;5058295;28;20743;-54
2021/10/01 10:47:44;;;;;;;3.33;3.20;;;16.90;98.50;;;;;;5050828;28;20461;-56
2021/10/01 10:50:27;;;;;;;3.60;3.40;;;16.90;98.80;;;;;;5062087;28;20475;-56
2021/10/01 10:53:20;;;;;;;4.53;4.23;;;16.70;98.10;;;;;;5062353;28;20798;-54
2021/10/01 10:55:53;;;;;;;3.70;3.53;;;16.60;98.80;;;;;;5062241;28;20485;-57
2021/10/01 10:58:26;;;;;;;3.30;3.20;;;16.70;99.00;;;;;;5054060;28;20665;-55
2021/10/01 11:01:00;;;;;;;3.70;3.50;;;16.80;99.60;;;;;;5066864;28;20502;-55
2021/10/01 11:03:33;;;;;;;3.83;3.53;;;16.90;97.80;;;;;;5057568;28;20440;-56
2021/10/01 11:06:18;;;;;;;3.47;3.27;;;16.90;98.00;;;;;;5063011;28;20619;-52
2021/10/01 11:09:12;;;;;;;3.60;3.40;;;16.90;98.80;;;;;;5058504;28;20448;-54
2021/10/01 11:11:42;;;;;;;3.20;3.00;;;17.20;97.50;;;;;;5032873;28;20806;-54
2021/10/01 11:14:15;;;;;;;3.23;3.13;;;17.40;97.00;;;;;;5061790;28;20767;-56
2021/10/01 11:16:52;;;;;;;3.83;3.13;;;17.40;96.70;;;;;;5062286;28;20460;-55
2021/10/01 11:19:42;;;;;;;3.03;2.80;;;17.30;95.60;;;;;;5061200;28;20436;-56
2021/10/01 11:22:38;;;;;;;3.27;3.10;;;17.30;96.30;;;;;;5061242;28;20494;-57
2021/10/01 11:25:12;;;;;;;3.50;3.30;;;17.30;96.90;;;;;;5062049;28;20760;-56
2021/10/01 11:27:59;;;;;;;3.63;3.43;;;17.20;96.40;;;;;;5061025;28;20438;-55
2021/10/01 11:30:28;;;;;;;3.70;3.50;;;17.30;95.30;;;;;;5061946;28;20423;-56
2021/10/01 11:33:07;;;;;;;4.80;3.40;;;17.20;95.80;;;;;;5060470;28;20460;-55
2021/10/01 11:35:53;;;;;;;4.03;3.73;;;17.20;96.80;;;;;;5061610;28;20405;-58
2021/10/01 11:38:30;;;;;;;3.97;3.77;;;17.20;96.40;;;;;;5061456;28;20597;-56
2021/10/01 11:41:13;;;;;;;4.10;3.80;;;17.20;96.10;;;;;;5061723;28;20489;-56
2021/10/01 11:43:49;;;;;;;4.00;3.70;;;17.10;96.30;;;;;;5060934;28;20634;-57
2021/10/01 11:46:31;;;;;;;5.67;4.30;;;17.10;96.50;;;;;;5061650;28;20435;-57
2021/10/01 11:49:02;;;;;;;4.67;4.37;;;17.10;96.10;;;;;;5068804;28;20473;-57
2021/10/01 11:51:31;;;;;;;3.70;3.50;;;17.20;96.40;;;;;;5061489;28;20818;-57
2021/10/01 11:54:14;;;;;;;3.50;3.33;;;17.20;96.20;;;;;;5061161;28;20741;-54
2021/10/01 11:56:53;;;;;;;3.60;3.30;;;17.10;96.00;;;;;;5062047;28;20463;-55
2021/10/01 11:59:25;;;;;;;3.53;3.23;;;17.00;96.60;;;;;;5053812;28;20448;-56
2021/10/01 12:01:58;;;;;;;3.80;3.50;;;17.10;95.60;;;;;;5060910;28;20686;-55
2021/10/01 12:04:33;;;;;;;3.70;3.50;;;17.20;95.60;;;;;;5060927;28;20407;-57
2021/10/01 12:07:05;;;;;;;3.30;3.10;;;17.30;95.30;;;;;;5060953;28;20811;-57
2021/10/01 12:09:33;;;;;;;3.47;3.27;;;17.20;95.30;;;;;;5061211;28;20481;-57
2021/10/01 12:12:08;;;;;;;3.50;3.40;;;17.20;95.20;;;;;;5078904;22;20661;-54
2021/10/01 12:14:35;;;;;;;3.83;3.47;;;17.40;95.10;;;;;;5056691;28;20873;-54
2021/10/01 12:17:09;;;;;;;3.80;3.60;;;17.30;94.50;;;;;;5055838;28;20502;-52
2021/10/01 12:19:37;;;;;;;3.53;3.33;;;17.20;94.90;;;;;;5053073;28;20409;-53
2021/10/01 12:22:16;;;;;;;4.10;3.80;;;17.30;95.60;;;;;;5066088;28;20485;-51
2021/10/01 12:24:47;;;;;;;3.83;3.53;;;17.30;95.90;;;;;;5069509;28;20406;-49
2021/10/01 12:27:17;;;;;;;4.10;3.80;;;17.40;96.20;;;;;;5063047;28;20452;-48
2021/10/01 12:29:48;;;;;;;3.40;3.20;;;17.40;96.50;;;;;;5068263;28;20413;-51
2021/10/01 12:32:17;;;;;;;3.17;3.07;;;17.50;95.30;;;;;;5072097;28;20464;-48
2021/10/01 12:34:57;;;;;;;3.43;3.13;;;17.50;95.20;;;;;;5079226;28;20717;-50
2021/10/01 12:37:29;;;;;;;3.97;3.77;;;17.40;94.00;;;;;;5076347;28;20447;-49
2021/10/01 12:40:03;;;;;;;4.40;4.10;;;17.30;94.80;;;;;;5066901;28;20418;-50
2021/10/01 12:42:35;;;;;;;4.37;4.07;;;17.10;95.60;;;;;;5064883;28;20471;-50
2021/10/01 12:45:09;;;;;;;3.70;3.50;;;17.00;96.30;;;;;;5070362;28;20413;-53
2021/10/01 12:47:39;;;;;;;4.40;4.00;;;17.10;95.10;;;;;;5079571;28;20431;-48
2021/10/01 12:50:10;;;;;;;3.33;3.13;;;17.10;95.20;;;;;;5065556;28;20776;-51
2021/10/01 12:52:38;;;;;;;3.60;3.40;;;17.20;94.50;;;;;;5062343;28;20433;-48
2021/10/01 12:55:11;;;;;;;4.00;3.80;;;17.30;94.80;;;;;;5070468;28;20743;-53
2021/10/01 12:57:46;;;;;;;4.07;3.73;;;17.20;95.10;;;;;;5073374;28;20456;-50
2021/10/01 13:00:29;;;;;;;4.43;4.07;;;17.20;94.70;;;;;;5066272;28;20446;-52
2021/10/01 13:03:01;;;;;;;3.50;3.40;;;17.30;94.40;;;;;;5072861;28;20531;-53
2021/10/01 13:05:40;;;;;;;3.43;3.33;;;17.20;95.20;;;;;;5079487;28;20451;-48
2021/10/01 13:08:11;;;;;;;4.20;4.00;;;17.30;95.30;;;;;;5078446;28;20462;-53
2021/10/01 13:10:53;;;;;;;3.93;3.73;;;17.30;95.30;;;;;;5067974;28;20414;-54
2021/10/01 13:13:33;;;;;;;3.77;3.57;;;17.30;95.70;;;;;;5063651;28;20466;-55
2021/10/01 13:16:07;;;;;;;4.10;3.80;;;17.40;94.90;;;;;;5073345;28;20440;-56
2021/10/01 13:18:37;;;;;;;4.83;3.80;;;17.40;95.20;;;;;;5068082;28;20463;-54
2021/10/01 13:21:10;;;;;;;3.63;3.43;;;17.40;95.60;;;;;;5072863;28;20539;-51
2021/10/01 13:23:41;;;;;;;6.73;3.90;;;17.40;95.60;;;;;;5069139;28;20518;-49
2021/10/01 13:26:11;;;;;;;3.63;3.43;;;17.30;95.00;;;;;;5070768;28;20818;-53
2021/10/01 13:28:38;;;;;;;3.60;3.40;;;17.20;95.20;;;;;;5073251;28;20421;-53
2021/10/01 13:31:06;;;;;;;4.37;4.07;;;17.20;95.70;;;;;;5064873;28;20441;-50
2021/10/01 13:33:33;;;;;;;3.50;3.20;;;17.20;95.60;;;;;;5059049;28;20426;-48
2021/10/01 13:36:01;;;;;;;4.30;3.97;;;17.10;96.30;;;;;;5069639;28;20425;-53
2021/10/01 13:38:35;;;;;;;4.73;4.37;;;17.20;96.30;;;;;;5077899;28;20433;-48
2021/10/01 13:41:05;;;;;;;4.07;3.77;;;17.20;96.50;;;;;;5074191;28;20459;-51
2021/10/01 13:43:32;;;;;;;4.23;3.93;;;17.20;96.30;;;;;;5075336;28;20450;-48
2021/10/01 13:46:01;;;;;;;4.40;4.10;;;17.30;96.20;;;;;;5074235;28;20413;-53
2021/10/01 13:48:29;;;;;;;3.40;3.30;;;17.30;96.40;;;;;;5074843;28;20406;-49
2021/10/01 13:50:56;;;;;;;4.07;3.77;;;17.30;96.10;;;;;;5075067;28;20448;-55
2021/10/01 13:53:24;;;;;;;4.20;3.60;;;17.30;96.30;;;;;;5074311;28;20488;-49
2021/10/01 13:55:54;;;;;;;4.13;3.83;;;17.30;96.50;;;;;;5072298;28;20412;-49
2021/10/01 13:58:22;;;;;;;4.37;4.10;;;17.20;96.60;;;;;;5073330;28;20409;-50
2021/10/01 14:00:52;;;;;;;4.60;4.20;;;17.10;96.70;;;;;;5076656;28;20604;-47
2021/10/01 14:03:21;;;;;;;4.20;4.00;;;17.00;96.70;;;;;;5074302;28;20509;-50
2021/10/01 14:05:49;;;;;;;3.87;3.67;;;17.00;96.50;;;;;;5078754;28;20450;-51
2021/10/01 14:08:18;;;;;;;3.87;3.60;;;17.00;96.80;;;;;;5070573;28;20410;-49
2021/10/01 14:10:45;;;;;;;4.10;3.80;;;16.90;96.50;;;;;;5074353;28;20445;-51
2021/10/01 14:13:13;;;;;;;5.40;4.20;;;16.90;97.00;;;;;;5077334;28;20452;-47
2021/10/01 14:15:43;;;;;;;5.63;5.10;;;17.10;97.00;;;;;;5081885;28;20437;-48
2021/10/01 14:18:11;;;;;;;3.90;3.70;;;17.00;96.80;;;;;;5082005;28;20813;-48
2021/10/01 14:20:38;;;;;;;4.70;4.50;;;16.90;96.80;;;;;;5082068;28;20788;-50
2021/10/01 14:23:06;;;;;;;4.50;4.20;;;16.90;97.00;;;;;;5081538;28;20440;-55
2021/10/01 14:25:35;;;;;;;3.97;3.77;;;16.90;97.50;;;;;;5081746;28;20407;-47
2021/10/01 14:28:04;;;;;;;4.00;3.70;;;16.90;97.00;;;;;;5079238;28;20437;-51
2021/10/01 14:30:33;;;;;;;4.60;4.13;;;16.90;97.10;;;;;;5078749;28;20421;-48
2021/10/01 14:33:02;;;;;;;3.87;3.67;;;16.90;97.20;;;;;;5078157;28;20918;-51
2021/10/01 14:35:38;;;;;;;4.83;4.43;;;16.80;97.70;;;;;;5077476;28;20430;-54